Time;durP1;ratioP1;P1;durP2;ratioP2;P2;SDS_P1;SDS_P2;PMS_P1;PMS_P2;Temp;Humidity;BMP_temperature;BMP_pressure;BME280_temperature;BME280_humidity;BME280_pressure;Samples;Min_cycle;Max_cycle;Signal;HPM_P1;HPM_P2
2023/05/18 00:01:59;;;;;;;3.22;1.38;;;14.60;58.30;;;;;;5012232;28;20497;-77
2023/05/18 00:04:25;;;;;;;2.63;1.40;;;14.50;58.30;;;;;;5028212;28;20033;-78
2023/05/18 00:07:02;;;;;;;2.03;1.50;;;14.40;58.30;;;;;;5012395;28;20038;-78
2023/05/18 00:09:28;;;;;;;2.47;1.50;;;14.40;58.30;;;;;;5045191;28;20029;-78
2023/05/18 00:11:54;;;;;;;1.88;1.55;;;14.40;58.30;;;;;;5013272;28;20068;-78
2023/05/18 00:14:20;;;;;;;2.67;1.63;;;14.30;58.30;;;;;;5028529;28;20030;-78
2023/05/18 00:16:46;;;;;;;2.17;1.65;;;14.30;58.40;;;;;;5028309;28;20033;-78
2023/05/18 00:19:13;;;;;;;2.40;1.60;;;14.30;58.50;;;;;;5012870;28;20060;-78
2023/05/18 00:21:45;;;;;;;1.30;1.20;;;14.20;59.10;;;;;;4996456;28;20451;-78
2023/05/18 00:24:11;;;;;;;1.98;1.77;;;14.20;58.50;;;;;;5028398;28;20057;-78
2023/05/18 00:26:38;;;;;;;2.08;1.40;;;14.20;58.60;;;;;;5028344;28;20077;-79
2023/05/18 00:29:08;;;;;;;3.35;1.40;;;14.10;58.60;;;;;;5028222;28;20030;-79
2023/05/18 00:31:35;;;;;;;2.63;1.63;;;14.10;58.60;;;;;;5028509;28;20091;-78
2023/05/18 00:34:08;;;;;;;2.33;1.60;;;14.10;58.60;;;;;;5028495;28;20026;-78
2023/05/18 00:36:35;;;;;;;1.55;1.30;;;14.10;58.60;;;;;;5028150;28;20033;-78
2023/05/18 00:39:01;;;;;;;2.83;1.50;;;14.00;58.60;;;;;;4995397;28;20467;-79
2023/05/18 00:41:27;;;;;;;2.38;1.38;;;14.00;58.70;;;;;;5011973;28;20050;-78
2023/05/18 00:43:54;;;;;;;2.70;1.63;;;13.90;59.30;;;;;;4997109;28;20459;-78
2023/05/18 00:46:21;;;;;;;1.88;1.40;;;13.90;58.70;;;;;;5031616;28;20041;-78
2023/05/18 00:48:49;;;;;;;2.08;1.55;;;13.90;58.80;;;;;;5014812;28;20050;-78
2023/05/18 00:51:22;;;;;;;1.80;1.30;;;13.80;58.80;;;;;;5031639;28;20060;-78
2023/05/18 00:53:52;;;;;;;1.95;1.33;;;13.80;58.90;;;;;;4999608;28;20033;-78
2023/05/18 00:56:20;;;;;;;1.80;1.40;;;13.80;58.90;;;;;;5031617;28;20022;-78
2023/05/18 00:58:47;;;;;;;1.33;1.20;;;13.70;58.90;;;;;;5031527;28;20491;-78
2023/05/18 01:01:12;;;;;;;3.08;1.65;;;13.70;58.90;;;;;;5016197;28;20064;-79
2023/05/18 01:03:39;;;;;;;1.85;1.40;;;13.70;58.90;;;;;;5016089;28;20076;-78
2023/05/18 01:06:05;;;;;;;1.95;1.50;;;13.70;59.00;;;;;;5032174;28;20374;-78
2023/05/18 01:08:32;;;;;;;3.08;1.40;;;13.60;59.00;;;;;;5031304;28;20030;-78
2023/05/18 01:11:13;;;;;;;3.20;1.80;;;13.60;59.00;;;;;;5014821;28;20041;-78
2023/05/18 01:13:55;;;;;;;3.15;1.52;;;13.60;59.10;;;;;;5032038;28;20025;-79
2023/05/18 01:16:26;;;;;;;1.67;1.52;;;13.60;59.10;;;;;;5014756;28;20030;-78
2023/05/18 01:19:08;;;;;;;1.77;1.50;;;13.50;59.10;;;;;;5031903;28;20473;-78
2023/05/18 01:22:20;;;;;;;2.08;1.60;;;13.50;59.10;;;;;;5015081;28;20030;-78
2023/05/18 01:24:56;;;;;;;2.17;1.55;;;13.40;59.20;;;;;;5031279;28;20453;-78
2023/05/18 01:27:24;;;;;;;2.67;1.60;;;13.40;59.20;;;;;;5031210;28;20034;-78
2023/05/18 01:29:52;;;;;;;2.65;1.60;;;13.40;59.20;;;;;;4998932;28;20030;-78
2023/05/18 01:32:20;;;;;;;2.70;1.60;;;13.30;59.30;;;;;;5030897;28;20156;-78
2023/05/18 01:34:47;;;;;;;1.90;1.45;;;13.30;59.30;;;;;;5031121;28;20387;-77
2023/05/18 01:37:13;;;;;;;2.67;1.70;;;13.30;59.30;;;;;;5047512;28;20565;-78
2023/05/18 01:39:39;;;;;;;3.13;1.50;;;13.30;59.30;;;;;;5047278;28;20113;-78
2023/05/18 01:42:11;;;;;;;2.63;1.70;;;13.20;59.30;;;;;;5047616;28;20041;-78
2023/05/18 01:44:49;;;;;;;2.65;1.52;;;13.20;59.40;;;;;;5030510;28;20065;-78
2023/05/18 01:47:17;;;;;;;2.15;1.40;;;13.20;59.40;;;;;;5014684;28;20182;-78
2023/05/18 01:49:49;;;;;;;2.08;1.50;;;13.20;59.40;;;;;;5016034;28;20116;-78
2023/05/18 01:52:21;;;;;;;3.35;1.73;;;13.10;59.50;;;;;;5015584;28;20112;-78
2023/05/18 01:54:55;;;;;;;2.50;1.77;;;13.10;59.50;;;;;;5014822;28;20041;-78
2023/05/18 01:57:26;;;;;;;2.38;1.40;;;13.10;59.50;;;;;;5030988;28;20054;-78
2023/05/18 01:59:54;;;;;;;2.95;1.40;;;13.10;59.50;;;;;;5030622;28;20121;-78
2023/05/18 02:02:20;;;;;;;3.13;1.70;;;13.00;59.50;;;;;;5048063;28;20026;-77
2023/05/18 02:04:46;;;;;;;2.15;1.50;;;13.00;59.60;;;;;;5014158;28;20092;-78
2023/05/18 02:07:11;;;;;;;3.33;1.65;;;13.00;59.60;;;;;;5047202;28;20026;-78
2023/05/18 02:09:38;;;;;;;3.30;1.75;;;12.90;59.60;;;;;;5014614;28;20489;-77
2023/05/18 02:12:04;;;;;;;2.60;1.65;;;12.90;59.60;;;;;;5014497;28;20030;-78
2023/05/18 02:14:32;;;;;;;2.53;1.73;;;12.90;59.70;;;;;;4998396;28;20037;-77
2023/05/18 02:16:59;;;;;;;1.95;1.70;;;12.90;59.70;;;;;;4997645;28;20030;-77
2023/05/18 02:19:25;;;;;;;2.67;1.70;;;12.80;59.60;;;;;;5013812;28;20037;-78
2023/05/18 02:21:56;;;;;;;3.97;1.73;;;12.80;59.70;;;;;;4997536;28;20034;-77
2023/05/18 02:24:23;;;;;;;2.63;1.65;;;12.80;59.70;;;;;;5013146;28;20034;-78
2023/05/18 02:26:52;;;;;;;2.47;1.85;;;12.80;59.80;;;;;;5029742;28;20022;-77
2023/05/18 02:29:18;;;;;;;2.25;1.63;;;12.80;59.80;;;;;;5014961;28;20021;-78
2023/05/18 02:31:44;;;;;;;2.88;1.60;;;12.70;59.70;;;;;;4997338;28;20037;-78
2023/05/18 02:34:10;;;;;;;3.25;1.70;;;12.70;59.80;;;;;;5046430;28;20050;-78
2023/05/18 02:36:38;;;;;;;3.20;1.70;;;12.70;59.90;;;;;;4997583;28;20388;-79
2023/05/18 02:39:06;;;;;;;2.95;1.83;;;12.70;59.90;;;;;;5014298;28;20483;-78
2023/05/18 02:41:33;;;;;;;3.30;2.00;;;12.60;59.80;;;;;;5029587;28;20037;-78
2023/05/18 02:44:00;;;;;;;3.58;1.98;;;12.60;59.90;;;;;;5029212;28;20485;-78
2023/05/18 02:46:25;;;;;;;2.97;1.80;;;12.60;59.90;;;;;;4997137;28;20191;-77
2023/05/18 02:48:51;;;;;;;1.92;1.60;;;12.60;60.00;;;;;;5013574;28;20453;-78
2023/05/18 02:51:17;;;;;;;4.07;1.95;;;12.50;59.90;;;;;;4996632;28;20041;-78
2023/05/18 02:53:43;;;;;;;2.47;2.00;;;12.50;59.90;;;;;;5012925;28;20034;-78
2023/05/18 02:56:11;;;;;;;3.03;1.77;;;12.50;60.00;;;;;;5029395;28;20418;-78
2023/05/18 02:58:56;;;;;;;2.72;1.83;;;12.50;60.00;;;;;;5015386;28;20103;-78
2023/05/18 03:01:27;;;;;;;3.13;1.95;;;12.50;60.00;;;;;;4997438;28;20451;-78
2023/05/18 03:03:53;;;;;;;2.72;1.65;;;12.40;60.00;;;;;;5013003;28;20041;-78
2023/05/18 03:06:25;;;;;;;2.92;1.60;;;12.40;60.00;;;;;;4996090;28;20100;-78
2023/05/18 03:08:53;;;;;;;4.00;2.00;;;12.40;60.10;;;;;;5013791;28;20124;-78
2023/05/18 03:11:21;;;;;;;3.53;1.67;;;12.40;60.10;;;;;;5029153;28;20029;-79
2023/05/18 03:13:47;;;;;;;4.30;1.95;;;12.40;60.20;;;;;;5013158;28;20407;-78
2023/05/18 03:16:14;;;;;;;1.83;1.50;;;12.30;60.10;;;;;;5012872;28;20443;-78
2023/05/18 03:18:40;;;;;;;3.40;2.17;;;12.30;60.10;;;;;;5046615;28;20044;-79
2023/05/18 03:21:06;;;;;;;2.08;1.65;;;12.30;60.20;;;;;;5012557;28;20164;-78
2023/05/18 03:23:33;;;;;;;2.80;1.88;;;12.30;60.20;;;;;;5045553;28;20466;-79
2023/05/18 03:26:02;;;;;;;2.15;1.80;;;12.30;60.30;;;;;;5012873;28;20037;-79
2023/05/18 03:28:28;;;;;;;2.35;1.73;;;12.20;60.20;;;;;;4996390;28;20414;-79
2023/05/18 03:30:54;;;;;;;1.83;1.55;;;12.20;60.20;;;;;;5045397;28;20117;-79
2023/05/18 03:33:20;;;;;;;2.50;2.10;;;12.20;60.20;;;;;;5012409;28;20203;-78
2023/05/18 03:35:47;;;;;;;2.25;1.63;;;12.20;60.20;;;;;;4995982;28;20038;-79
2023/05/18 03:38:13;;;;;;;2.70;1.80;;;12.10;60.20;;;;;;4996238;28;20360;-78
2023/05/18 03:40:43;;;;;;;3.05;1.38;;;12.20;60.30;;;;;;5013087;28;20494;-79
2023/05/18 03:43:08;;;;;;;2.30;1.73;;;12.10;60.20;;;;;;5012296;28;20030;-78
2023/05/18 03:45:35;;;;;;;2.08;1.67;;;12.10;60.30;;;;;;5012398;28;20509;-78
2023/05/18 03:48:01;;;;;;;3.03;1.88;;;12.10;60.30;;;;;;5044927;28;20050;-78
2023/05/18 03:50:29;;;;;;;1.95;1.75;;;12.10;60.40;;;;;;5012438;28;20112;-78
2023/05/18 03:52:55;;;;;;;3.55;2.00;;;12.00;60.30;;;;;;4979776;28;20438;-78
2023/05/18 03:55:21;;;;;;;3.13;1.73;;;12.00;60.40;;;;;;5045175;28;20034;-79
2023/05/18 03:57:50;;;;;;;2.50;1.70;;;12.00;60.40;;;;;;5012428;28;20367;-79
2023/05/18 04:00:16;;;;;;;3.47;2.00;;;11.90;60.40;;;;;;5045101;28;20049;-78
2023/05/18 04:02:45;;;;;;;2.05;1.70;;;12.00;60.40;;;;;;4996590;28;20030;-79
2023/05/18 04:05:14;;;;;;;3.63;1.75;;;11.90;60.40;;;;;;5012438;28;20403;-78
2023/05/18 04:07:42;;;;;;;2.78;1.88;;;11.90;60.40;;;;;;4996514;28;20026;-78
2023/05/18 04:10:13;;;;;;;2.60;2.00;;;11.90;60.50;;;;;;5012807;28;20387;-79
2023/05/18 04:12:41;;;;;;;2.08;1.83;;;11.90;60.50;;;;;;5012917;28;20034;-78
2023/05/18 04:15:09;;;;;;;3.05;1.83;;;11.90;60.50;;;;;;4995593;28;20033;-78
2023/05/18 04:17:34;;;;;;;3.25;2.00;;;11.80;60.50;;;;;;5013233;28;20045;-78
2023/05/18 04:20:03;;;;;;;2.40;2.00;;;11.80;60.50;;;;;;5016203;28;20383;-78
2023/05/18 04:22:30;;;;;;;3.63;1.77;;;11.90;60.60;;;;;;5015723;28;20045;-79
2023/05/18 04:24:56;;;;;;;2.55;1.80;;;11.80;60.50;;;;;;5031814;28;20121;-79
2023/05/18 04:27:21;;;;;;;3.80;1.92;;;11.80;60.60;;;;;;5048806;28;20069;-78
2023/05/18 04:29:48;;;;;;;2.28;1.77;;;11.80;60.60;;;;;;4999304;28;20030;-79
2023/05/18 04:32:17;;;;;;;2.55;1.70;;;11.80;60.60;;;;;;4999494;28;20427;-79
2023/05/18 04:34:42;;;;;;;1.95;1.60;;;11.80;60.60;;;;;;5015611;28;20069;-78
2023/05/18 04:37:09;;;;;;;3.42;2.00;;;11.80;60.60;;;;;;5015417;28;20037;-78
2023/05/18 04:39:38;;;;;;;3.58;1.80;;;11.80;60.70;;;;;;5048541;28;20026;-82
2023/05/18 04:42:07;;;;;;;3.20;1.80;;;11.80;60.70;;;;;;5016539;28;20379;-78
2023/05/18 04:44:33;;;;;;;3.67;1.80;;;11.80;60.70;;;;;;4999043;28;20026;-78
2023/05/18 04:47:00;;;;;;;3.33;1.95;;;11.80;60.70;;;;;;4999217;28;20046;-78
2023/05/18 04:49:27;;;;;;;3.00;1.85;;;11.70;60.70;;;;;;4998611;28;20131;-78
2023/05/18 04:51:55;;;;;;;2.58;1.80;;;11.80;60.70;;;;;;5015377;28;20390;-79
2023/05/18 04:54:22;;;;;;;2.00;1.80;;;11.70;60.70;;;;;;4998819;28;20083;-79
2023/05/18 04:56:49;;;;;;;3.00;1.80;;;11.70;60.70;;;;;;5015939;28;20034;-79
2023/05/18 04:59:16;;;;;;;1.90;1.60;;;11.70;60.70;;;;;;4982855;28;20038;-79
2023/05/18 05:01:42;;;;;;;3.20;1.92;;;11.80;60.80;;;;;;5015299;28;20037;-79
2023/05/18 05:04:08;;;;;;;2.53;1.70;;;11.70;60.70;;;;;;5016092;28;20032;-77
2023/05/18 05:06:34;;;;;;;3.30;1.90;;;11.70;60.70;;;;;;5031385;28;20105;-78
2023/05/18 05:09:00;;;;;;;1.55;1.42;;;11.70;60.70;;;;;;4998582;28;20026;-79
2023/05/18 05:11:26;;;;;;;3.10;2.10;;;11.70;60.70;;;;;;5015032;28;20037;-79
2023/05/18 05:13:52;;;;;;;3.33;1.75;;;11.70;60.70;;;;;;5015021;28;20498;-79
2023/05/18 05:16:18;;;;;;;2.30;1.63;;;11.80;60.80;;;;;;5015400;28;20037;-79
2023/05/18 05:18:43;;;;;;;3.20;1.88;;;11.80;60.80;;;;;;5031195;28;20075;-78
2023/05/18 05:21:09;;;;;;;1.92;1.40;;;11.80;60.80;;;;;;5014844;28;20120;-79
2023/05/18 05:23:35;;;;;;;2.22;1.60;;;11.80;60.80;;;;;;4982465;28;20030;-79
2023/05/18 05:26:01;;;;;;;2.97;1.77;;;11.80;60.80;;;;;;5015126;28;20045;-79
2023/05/18 05:28:28;;;;;;;4.05;1.80;;;11.80;60.80;;;;;;5047430;28;20037;-78
2023/05/18 05:30:54;;;;;;;3.17;1.77;;;11.80;60.80;;;;;;5014320;28;20026;-79
2023/05/18 05:33:20;;;;;;;2.78;1.70;;;11.80;60.80;;;;;;5030917;28;20036;-79
2023/05/18 05:35:46;;;;;;;1.75;1.40;;;11.80;60.80;;;;;;5015201;28;20128;-80
2023/05/18 05:38:11;;;;;;;2.58;1.75;;;11.80;60.80;;;;;;4981851;28;20057;-79
2023/05/18 05:40:37;;;;;;;2.58;1.55;;;11.80;60.80;;;;;;5047704;28;20088;-78
2023/05/18 05:43:05;;;;;;;1.90;1.40;;;11.80;60.80;;;;;;4997986;28;20033;-78
2023/05/18 05:45:31;;;;;;;1.80;1.70;;;11.80;60.80;;;;;;5013986;28;20041;-79
2023/05/18 05:48:00;;;;;;;4.57;1.67;;;11.80;60.80;;;;;;4998315;28;20566;-79
2023/05/18 05:50:27;;;;;;;2.80;1.60;;;11.80;60.80;;;;;;5013592;28;20491;-80
2023/05/18 05:52:56;;;;;;;3.45;1.77;;;11.80;60.80;;;;;;4998415;28;20435;-79
2023/05/18 05:55:23;;;;;;;1.73;1.40;;;11.80;60.80;;;;;;4998716;28;20030;-79
2023/05/18 05:57:50;;;;;;;2.25;1.40;;;11.90;60.80;;;;;;4998374;28;20124;-79
2023/05/18 06:00:16;;;;;;;2.63;1.70;;;11.90;60.80;;;;;;5013961;28;20033;-79
2023/05/18 06:02:55;;;;;;;2.60;1.60;;;11.90;60.80;;;;;;5032778;28;20054;-79
2023/05/18 06:05:30;;;;;;;2.20;1.45;;;11.90;60.80;;;;;;5015575;28;20060;-79
2023/05/18 06:07:56;;;;;;;1.83;1.40;;;11.90;60.80;;;;;;5013933;28;20483;-78
2023/05/18 06:10:22;;;;;;;3.33;1.85;;;11.90;60.80;;;;;;4997037;28;20037;-79
2023/05/18 06:12:48;;;;;;;1.50;1.38;;;11.90;60.80;;;;;;5013726;28;20034;-79
2023/05/18 06:15:14;;;;;;;2.58;1.73;;;11.90;60.80;;;;;;4998138;28;20036;-79
2023/05/18 06:17:42;;;;;;;2.13;1.55;;;11.90;60.80;;;;;;4997365;28;20153;-79
2023/05/18 06:20:09;;;;;;;2.53;1.50;;;11.90;60.80;;;;;;4997781;28;20033;-79
2023/05/18 06:22:35;;;;;;;2.65;1.42;;;12.00;60.80;;;;;;4996830;28;20034;-79
2023/05/18 06:25:14;;;;;;;1.77;1.50;;;12.00;60.80;;;;;;4984402;28;20032;-79
2023/05/18 06:27:54;;;;;;;2.72;1.60;;;12.00;60.80;;;;;;5013860;28;20487;-79
2023/05/18 06:30:35;;;;;;;2.35;1.80;;;12.00;60.80;;;;;;5015719;28;20057;-82
2023/05/18 06:33:25;;;;;;;2.22;1.65;;;12.00;60.80;;;;;;5013179;28;20073;-79
2023/05/18 06:35:51;;;;;;;2.30;1.60;;;12.00;60.80;;;;;;5046402;28;20040;-79
2023/05/18 06:38:16;;;;;;;3.78;1.73;;;12.00;60.80;;;;;;5013311;28;20030;-79
2023/05/18 06:40:43;;;;;;;2.90;1.60;;;12.00;60.80;;;;;;5012466;28;20466;-79
2023/05/18 06:43:08;;;;;;;2.05;1.52;;;12.00;60.80;;;;;;5013277;28;20026;-81
2023/05/18 06:45:45;;;;;;;2.30;1.60;;;12.00;60.80;;;;;;5015002;28;20040;-79
2023/05/18 06:48:23;;;;;;;2.05;1.50;;;12.10;60.90;;;;;;5014832;28;20124;-79
2023/05/18 06:50:49;;;;;;;2.10;1.63;;;12.10;60.80;;;;;;5012722;28;20072;-80
2023/05/18 06:53:14;;;;;;;2.08;1.70;;;12.00;60.80;;;;;;4997285;28;20026;-84
2023/05/18 06:55:40;;;;;;;2.80;1.63;;;12.10;60.90;;;;;;4997464;28;20030;-83
2023/05/18 06:58:06;;;;;;;3.25;1.60;;;12.10;60.90;;;;;;4997641;28;20372;-83
2023/05/18 07:00:32;;;;;;;2.70;1.80;;;12.10;60.80;;;;;;4997493;28;20070;-83
2023/05/18 07:02:58;;;;;;;3.05;1.83;;;12.20;60.90;;;;;;4981282;28;20050;-84
2023/05/18 07:05:24;;;;;;;2.72;1.65;;;12.10;60.80;;;;;;5012916;28;20034;-79
2023/05/18 07:07:50;;;;;;;2.45;1.48;;;12.20;60.90;;;;;;5013204;28;20053;-79
2023/05/18 07:10:16;;;;;;;2.53;1.42;;;12.20;60.80;;;;;;5016598;28;20077;-83
2023/05/18 07:12:42;;;;;;;3.72;1.55;;;12.20;60.80;;;;;;4981893;28;20425;-82
2023/05/18 07:15:08;;;;;;;1.58;1.40;;;12.20;60.80;;;;;;5014174;28;20124;-79
2023/05/18 07:17:34;;;;;;;3.00;1.55;;;12.20;60.80;;;;;;4981412;28;20462;-81
2023/05/18 07:19:59;;;;;;;3.17;1.83;;;12.30;60.80;;;;;;5013435;28;20041;-79
2023/05/18 07:22:25;;;;;;;4.15;1.85;;;12.20;60.80;;;;;;5013576;28;20410;-80
2023/05/18 07:24:51;;;;;;;2.05;1.48;;;12.30;60.80;;;;;;4996039;28;20046;-82
2023/05/18 07:27:16;;;;;;;2.47;1.60;;;12.30;60.80;;;;;;5014162;28;20113;-82
2023/05/18 07:29:42;;;;;;;3.33;1.77;;;12.40;60.80;;;;;;5014117;28;20030;-82
2023/05/18 07:32:08;;;;;;;2.38;1.60;;;12.30;60.70;;;;;;5014562;28;20026;-86
2023/05/18 07:34:34;;;;;;;2.67;1.63;;;12.40;60.80;;;;;;5013455;28;20038;-83
2023/05/18 07:36:59;;;;;;;3.17;1.63;;;12.40;60.80;;;;;;5013012;28;20030;-82
2023/05/18 07:39:28;;;;;;;1.85;1.50;;;12.50;60.80;;;;;;4996657;28;20038;-82
2023/05/18 07:41:54;;;;;;;4.70;1.70;;;12.50;60.80;;;;;;5013602;28;20103;-79
2023/05/18 07:44:20;;;;;;;2.90;1.67;;;12.50;60.80;;;;;;5028681;28;20113;-80
2023/05/18 07:46:46;;;;;;;2.10;1.65;;;12.50;60.70;;;;;;5012440;28;20169;-80
2023/05/18 07:49:12;;;;;;;3.05;1.70;;;12.50;60.70;;;;;;5012284;28;20049;-83
2023/05/18 07:51:38;;;;;;;3.38;1.75;;;12.60;60.70;;;;;;5012294;28;20084;-80
2023/05/18 07:54:04;;;;;;;2.22;1.60;;;12.60;60.70;;;;;;4999542;28;20033;-82
2023/05/18 07:56:30;;;;;;;1.95;1.58;;;12.70;60.60;;;;;;5000195;28;20443;-79
2023/05/18 07:58:56;;;;;;;2.45;1.58;;;12.70;60.60;;;;;;5016338;28;20040;-78
2023/05/18 08:01:26;;;;;;;1.83;1.48;;;12.80;60.60;;;;;;5017256;28;20018;-79
2023/05/18 08:03:53;;;;;;;2.75;1.67;;;12.80;60.50;;;;;;5032940;28;20096;-79
2023/05/18 08:06:19;;;;;;;2.58;1.63;;;12.90;60.50;;;;;;5016254;28;20129;-79
2023/05/18 08:08:45;;;;;;;2.15;1.70;;;12.90;60.40;;;;;;5016065;28;20042;-79
2023/05/18 08:11:11;;;;;;;2.25;1.58;;;13.00;60.30;;;;;;5016648;28;20037;-79
2023/05/18 08:13:37;;;;;;;4.65;1.60;;;13.00;60.20;;;;;;5016001;28;20037;-81
2023/05/18 08:16:03;;;;;;;2.80;1.45;;;13.10;60.20;;;;;;4983058;28;20460;-80
2023/05/18 08:18:28;;;;;;;2.95;1.70;;;13.20;60.10;;;;;;4999162;28;20057;-81
2023/05/18 08:20:54;;;;;;;3.75;1.67;;;13.20;60.00;;;;;;5031763;28;20355;-82
2023/05/18 08:23:22;;;;;;;2.13;1.42;;;13.30;60.00;;;;;;5015201;28;20034;-82
2023/05/18 08:25:48;;;;;;;2.72;1.70;;;13.40;59.90;;;;;;5016492;28;20026;-83
2023/05/18 08:28:14;;;;;;;1.80;1.40;;;13.50;59.80;;;;;;4983207;28;20041;-82
2023/05/18 08:30:40;;;;;;;3.47;1.67;;;13.60;59.80;;;;;;5031821;28;20037;-82
2023/05/18 08:33:06;;;;;;;3.28;1.40;;;13.70;59.70;;;;;;4999272;28;20030;-84
2023/05/18 08:35:32;;;;;;;4.60;1.70;;;13.80;59.60;;;;;;5017879;28;20084;-83
2023/05/18 08:37:58;;;;;;;2.38;1.55;;;13.80;59.50;;;;;;5000058;28;20382;-77
2023/05/18 08:40:35;;;;;;;4.22;1.63;;;13.90;59.40;;;;;;5001393;28;20022;-79
2023/05/18 08:43:17;;;;;;;3.15;1.77;;;14.00;59.30;;;;;;5017351;28;20080;-79
2023/05/18 08:45:57;;;;;;;2.50;1.50;;;14.20;59.30;;;;;;5032380;28;20034;-78
2023/05/18 08:48:25;;;;;;;1.63;1.20;;;14.30;59.20;;;;;;5032921;28;20029;-78
2023/05/18 08:50:53;;;;;;;2.88;1.88;;;14.30;59.00;;;;;;5048235;28;20436;-79
2023/05/18 08:53:21;;;;;;;2.38;1.42;;;14.40;58.90;;;;;;5048496;28;20104;-79
2023/05/18 08:55:52;;;;;;;2.47;1.58;;;14.50;58.90;;;;;;5031289;28;20498;-78
2023/05/18 08:58:20;;;;;;;2.05;1.75;;;14.60;58.70;;;;;;5016711;28;20029;-79
2023/05/18 09:00:46;;;;;;;3.17;1.60;;;14.70;58.70;;;;;;5016268;28;20018;-78
2023/05/18 09:03:13;;;;;;;2.40;1.45;;;14.80;58.50;;;;;;5015216;28;20113;-79
2023/05/18 09:05:40;;;;;;;2.72;1.50;;;14.90;58.50;;;;;;5014618;28;20504;-79
2023/05/18 09:08:08;;;;;;;2.80;1.50;;;15.00;58.40;;;;;;5014823;28;20038;-78
2023/05/18 09:10:34;;;;;;;2.53;1.75;;;15.10;58.40;;;;;;5014657;28;20033;-78
2023/05/18 09:13:04;;;;;;;2.22;1.55;;;15.20;58.30;;;;;;5030496;28;20105;-78
2023/05/18 09:15:30;;;;;;;3.70;1.52;;;15.30;58.30;;;;;;5031597;28;20037;-79
2023/05/18 09:17:55;;;;;;;3.22;1.80;;;15.30;58.10;;;;;;4998547;28;20034;-78
2023/05/18 09:20:22;;;;;;;1.95;1.42;;;15.40;58.10;;;;;;4982550;28;20030;-78
2023/05/18 09:22:50;;;;;;;2.50;1.67;;;15.50;58.00;;;;;;5014942;28;20121;-78
2023/05/18 09:25:17;;;;;;;1.65;1.40;;;15.60;58.00;;;;;;5014376;28;20470;-79
2023/05/18 09:27:43;;;;;;;2.67;1.42;;;15.60;57.80;;;;;;5030447;28;20173;-79
2023/05/18 09:30:10;;;;;;;2.05;1.50;;;15.70;57.80;;;;;;5031433;28;20392;-78
2023/05/18 09:32:36;;;;;;;3.25;1.45;;;15.80;57.80;;;;;;5015069;28;20438;-73
2023/05/18 09:35:06;;;;;;;3.33;1.70;;;15.90;57.60;;;;;;5015626;28;20030;-75
2023/05/18 09:37:32;;;;;;;3.75;1.75;;;15.90;57.10;;;;;;4997740;28;20372;-74
2023/05/18 09:39:59;;;;;;;3.30;1.60;;;15.90;56.60;;;;;;5014384;28;20037;-75
2023/05/18 09:42:35;;;;;;;4.00;2.00;;;16.00;56.20;;;;;;5014007;28;20034;-75
2023/05/18 09:45:03;;;;;;;3.22;1.80;;;16.00;56.00;;;;;;5015547;28;20062;-77
2023/05/18 09:47:28;;;;;;;2.65;1.92;;;16.00;55.70;;;;;;5014206;28;20517;-75
2023/05/18 09:49:56;;;;;;;4.85;1.98;;;16.00;55.60;;;;;;5016227;28;20077;-75
2023/05/18 09:52:22;;;;;;;4.18;2.00;;;16.10;55.40;;;;;;5015021;28;20025;-74
2023/05/18 09:54:59;;;;;;;3.50;1.60;;;16.10;55.10;;;;;;5014988;28;20088;-74
2023/05/18 09:57:25;;;;;;;2.95;1.70;;;16.10;54.80;;;;;;5015997;28;20042;-78
2023/05/18 09:59:56;;;;;;;3.50;2.10;;;16.20;54.70;;;;;;4997753;28;20033;-75
2023/05/18 10:02:24;;;;;;;3.63;1.90;;;16.20;54.60;;;;;;5014736;28;20060;-75
2023/05/18 10:04:50;;;;;;;4.18;1.92;;;16.20;54.60;;;;;;5015452;28;20113;-74
2023/05/18 10:07:16;;;;;;;3.97;2.25;;;16.20;54.30;;;;;;5046452;28;20499;-74
2023/05/18 10:09:44;;;;;;;3.60;1.88;;;16.20;54.10;;;;;;5013405;28;20041;-75
2023/05/18 10:12:12;;;;;;;4.07;1.70;;;16.30;53.90;;;;;;5047431;28;20029;-73
2023/05/18 10:14:41;;;;;;;3.38;1.88;;;16.30;53.80;;;;;;5029704;28;20026;-75
2023/05/18 10:17:09;;;;;;;2.92;1.50;;;16.40;54.30;;;;;;5013609;28;20022;-75
2023/05/18 10:19:36;;;;;;;4.45;1.90;;;16.40;53.50;;;;;;5013586;28;20075;-75
2023/05/18 10:22:04;;;;;;;2.90;1.67;;;16.40;53.50;;;;;;5013619;28;20148;-75
2023/05/18 10:24:37;;;;;;;3.38;1.75;;;16.50;53.40;;;;;;5029767;28;20034;-76
2023/05/18 10:27:08;;;;;;;2.38;1.70;;;16.50;53.20;;;;;;5030099;28;20034;-82
2023/05/18 10:29:36;;;;;;;4.05;2.17;;;16.50;53.20;;;;;;5030317;28;20030;-88
2023/05/18 10:32:03;;;;;;;3.35;1.80;;;16.60;53.10;;;;;;5029661;28;20022;-76
2023/05/18 10:34:33;;;;;;;4.82;1.83;;;16.60;53.00;;;;;;5014150;28;20049;-77
2023/05/18 10:37:04;;;;;;;3.70;1.70;;;16.70;53.00;;;;;;5013138;28;20048;-76
2023/05/18 10:39:35;;;;;;;2.95;1.80;;;16.70;52.90;;;;;;5014056;28;20500;-76
2023/05/18 10:42:03;;;;;;;2.35;1.63;;;16.80;52.70;;;;;;5029716;28;20037;-76
2023/05/18 10:44:30;;;;;;;5.60;1.65;;;16.80;52.70;;;;;;5012861;28;20065;-77
2023/05/18 10:46:55;;;;;;;3.47;1.60;;;16.90;52.50;;;;;;5014055;28;20061;-78
2023/05/18 10:49:24;;;;;;;3.88;1.98;;;16.90;52.40;;;;;;5012786;28;20533;-78
2023/05/18 10:51:55;;;;;;;3.25;1.70;;;16.90;52.20;;;;;;5013376;28;20160;-79
2023/05/18 10:54:24;;;;;;;2.53;1.95;;;17.00;52.10;;;;;;5013209;28;20029;-78
2023/05/18 10:56:53;;;;;;;2.38;1.52;;;17.00;52.10;;;;;;5030099;28;20026;-78
2023/05/18 10:59:22;;;;;;;3.05;1.73;;;17.00;52.00;;;;;;5014897;28;20113;-78
2023/05/18 11:01:50;;;;;;;3.22;1.77;;;17.00;52.00;;;;;;4997052;28;20072;-77
2023/05/18 11:04:25;;;;;;;2.50;1.88;;;17.10;52.00;;;;;;5029678;28;20054;-79
2023/05/18 11:06:59;;;;;;;3.40;1.80;;;17.10;51.90;;;;;;5013705;28;20057;-76
2023/05/18 11:09:27;;;;;;;4.28;1.90;;;17.10;51.70;;;;;;5045706;28;20088;-78
2023/05/18 11:11:55;;;;;;;2.60;1.60;;;17.20;51.80;;;;;;4997096;28;20333;-79
2023/05/18 11:14:29;;;;;;;2.92;1.60;;;17.20;51.80;;;;;;5013668;28;20045;-78
2023/05/18 11:17:15;;;;;;;3.20;1.63;;;17.30;51.80;;;;;;5013114;28;20037;-84
2023/05/18 11:20:08;;;;;;;4.07;2.00;;;17.30;51.70;;;;;;5012594;28;20086;-80
2023/05/18 11:22:58;;;;;;;3.38;1.52;;;17.30;51.80;;;;;;5009485;28;20030;-78
2023/05/18 11:25:24;;;;;;;2.97;1.80;;;17.30;51.70;;;;;;5013192;28;20117;-76
2023/05/18 11:28:09;;;;;;;2.47;1.50;;;17.30;51.70;;;;;;5012202;28;20117;-77
2023/05/18 11:30:35;;;;;;;2.55;1.88;;;17.30;51.60;;;;;;5029097;28;20026;-77
2023/05/18 11:33:22;;;;;;;3.22;2.05;;;17.30;51.60;;;;;;5046323;28;20379;-77
2023/05/18 11:36:06;;;;;;;5.57;1.85;;;17.30;51.50;;;;;;5013360;28;20105;-78
2023/05/18 11:38:47;;;;;;;3.22;1.70;;;17.40;51.50;;;;;;5046282;28;20048;-77
2023/05/18 11:41:29;;;;;;;4.90;2.00;;;17.40;51.50;;;;;;5013729;28;20517;-78
2023/05/18 11:44:08;;;;;;;4.65;1.90;;;17.40;51.30;;;;;;5013733;28;20042;-79
2023/05/18 11:46:35;;;;;;;4.63;2.00;;;17.40;51.20;;;;;;5012605;28;20045;-77
2023/05/18 11:49:03;;;;;;;3.50;1.83;;;17.40;51.40;;;;;;5012528;28;20133;-76
2023/05/18 11:51:31;;;;;;;4.75;2.00;;;17.40;51.30;;;;;;5028837;28;20084;-77
2023/05/18 11:53:58;;;;;;;4.55;2.28;;;17.40;51.30;;;;;;5012842;28;20041;-76
2023/05/18 11:56:25;;;;;;;3.05;1.80;;;17.40;51.30;;;;;;5028572;28;20038;-79
2023/05/18 11:59:11;;;;;;;4.45;2.00;;;17.40;51.30;;;;;;5012921;28;20463;-78
2023/05/18 12:01:37;;;;;;;2.85;1.70;;;17.40;51.00;;;;;;5013209;28;20036;-78
2023/05/18 12:04:04;;;;;;;4.22;2.03;;;17.40;51.20;;;;;;5013492;28;20378;-78
2023/05/18 12:06:30;;;;;;;5.13;2.00;;;17.40;51.20;;;;;;5012608;28;20045;-78
2023/05/18 12:08:57;;;;;;;3.42;1.92;;;17.40;51.10;;;;;;5012030;28;20049;-78
2023/05/18 12:11:23;;;;;;;2.92;1.70;;;17.40;51.00;;;;;;5012936;28;20029;-78
2023/05/18 12:13:51;;;;;;;2.63;1.67;;;17.40;50.90;;;;;;5013653;28;20026;-78
2023/05/18 12:16:17;;;;;;;4.60;2.28;;;17.40;50.90;;;;;;5012328;28;20077;-78
2023/05/18 12:18:50;;;;;;;4.30;2.03;;;17.40;50.90;;;;;;5044921;28;20034;-79
2023/05/18 12:21:23;;;;;;;2.72;1.75;;;17.40;50.80;;;;;;5013516;28;20040;-77
2023/05/18 12:23:58;;;;;;;3.50;1.83;;;17.50;50.80;;;;;;5028502;28;20091;-79
2023/05/18 12:26:24;;;;;;;2.55;1.75;;;17.50;50.80;;;;;;5028427;28;20041;-79
2023/05/18 12:28:59;;;;;;;3.88;2.22;;;17.50;50.80;;;;;;5044887;28;20034;-79
2023/05/18 12:31:25;;;;;;;;;;;17.50;50.70;;;;;;5029379;28;20030;-78
2023/05/18 12:33:53;;;;;;;4.43;1.70;;;17.50;51.10;;;;;;5028822;28;20269;-85
2023/05/18 12:36:19;;;;;;;3.30;1.55;;;17.50;50.90;;;;;;5011811;28;20164;-78
2023/05/18 12:38:51;;;;;;;3.72;1.90;;;17.50;51.50;;;;;;5013500;28;20049;-80
2023/05/18 12:41:25;;;;;;;5.63;1.98;;;17.50;50.70;;;;;;5017092;28;20038;-82
2023/05/18 12:43:53;;;;;;;2.85;1.67;;;17.50;50.60;;;;;;4999239;28;20053;-81
2023/05/18 12:46:21;;;;;;;3.00;1.77;;;17.60;50.70;;;;;;5015980;28;20030;-81
2023/05/18 12:48:56;;;;;;;4.97;1.67;;;17.60;50.60;;;;;;5031474;28;20053;-80
2023/05/18 12:51:22;;;;;;;;;;;17.70;50.60;;;;;;5015693;28;20108;-81
2023/05/18 12:53:49;;;;;;;2.35;1.40;;;17.70;50.90;;;;;;5015659;28;19945;-82
2023/05/18 12:56:15;;;;;;;3.08;1.60;;;17.80;50.80;;;;;;5031680;28;20052;-81